Terminal Aerodrome Forecast
Issued by NWS Atlanta, GA

Home | Current Version | Previous Version | Text Only | Print | Product List | Glossary On
Versions: 1 2 3 4 5 6 7 8 9 10 11 12 13 14 15 16 17 18 19 20 21 22 23 24 25 26 27 28 29 30 31 32 33 34 35 36 37 38 39 40 41 42 43 44 45 46 47 48
000
FTUS42 KFFC 031731
TAFATL
TAF
KATL 031731Z 0318/0424 10007KT 4SM BR OVC005
     FM032100 10007KT P6SM OVC009
     FM040500 13006KT 3SM BR OVC005
     FM040800 20006KT 2SM BR BKN003 OVC007
     FM041400 22007KT 3SM BR BKN007
     FM041700 22010G16KT P6SM BKN020=

USA.gov is the U.S. government's official web portal to all federal, state and local government web resources and services.